createdAt,value
2022-10-28T00:01:23.369Z,19.10
2022-10-28T00:03:52.646Z,18.99
2022-10-28T00:06:22.745Z,19.04
2022-10-28T00:08:49.760Z,19.23
2022-10-28T00:11:19.859Z,19.25
2022-10-28T00:13:46.551Z,19.35
2022-10-28T00:16:21.373Z,19.40
2022-10-28T00:18:48.382Z,19.48
2022-10-28T00:21:17.582Z,19.50
2022-10-28T00:23:44.533Z,19.49
2022-10-28T00:26:12.518Z,19.49
2022-10-28T00:28:43.834Z,19.39
2022-10-28T00:31:13.684Z,19.13
2022-10-28T00:33:40.542Z,18.81
2022-10-28T00:36:34.829Z,19.01
2022-10-28T00:39:03.178Z,18.99
2022-10-28T00:41:36.294Z,18.66
2022-10-28T00:44:47.807Z,19.15
2022-10-28T00:47:55.300Z,19.00
2022-10-28T00:50:46.755Z,19.12
2022-10-28T00:53:21.670Z,19.02
2022-10-28T00:55:49.612Z,18.94
2022-10-28T00:58:17.568Z,18.89
2022-10-28T01:00:43.980Z,18.72
2022-10-28T01:03:10.428Z,18.66
2022-10-28T01:05:39.714Z,18.65
2022-10-28T01:08:06.692Z,18.47
2022-10-28T01:10:58.005Z,18.55
2022-10-28T01:13:47.644Z,18.48
2022-10-28T01:16:38.502Z,18.43
2022-10-28T01:19:26.107Z,18.31
2022-10-28T01:22:19.418Z,18.07
2022-10-28T01:25:18.471Z,18.04
2022-10-28T01:27:47.542Z,18.04
2022-10-28T01:30:18.550Z,17.48
2022-10-28T01:33:12.886Z,17.68
2022-10-28T01:35:57.532Z,17.98
2022-10-28T01:38:39.678Z,17.81
2022-10-28T01:41:06.058Z,17.17
2022-10-28T01:43:38.515Z,17.39
2022-10-28T01:46:11.462Z,17.77
2022-10-28T01:48:47.410Z,17.47
2022-10-28T01:51:21.043Z,17.60
2022-10-28T01:53:51.354Z,17.77
2022-10-28T01:56:23.557Z,17.62
2022-10-28T01:58:51.125Z,17.54
2022-10-28T02:01:18.604Z,17.62
2022-10-28T02:03:47.302Z,17.47
2022-10-28T02:06:20.323Z,17.41
2022-10-28T02:08:57.486Z,17.26
2022-10-28T02:11:34.307Z,17.43
2022-10-28T02:14:22.697Z,17.32
2022-10-28T02:16:51.303Z,17.14
2022-10-28T02:19:32.659Z,16.60
2022-10-28T02:22:08.055Z,17.12
2022-10-28T02:24:54.497Z,17.27
2022-10-28T02:27:51.907Z,17.20
2022-10-28T02:30:22.848Z,17.28
2022-10-28T02:32:56.227Z,16.87
2022-10-28T02:35:30.735Z,16.90
2022-10-28T02:38:01.531Z,17.16
2022-10-28T02:40:30.469Z,17.28
2022-10-28T02:43:04.799Z,17.15
2022-10-28T02:45:34.556Z,17.26
2022-10-28T02:48:07.073Z,17.32
2022-10-28T02:50:38.043Z,17.35
2022-10-28T02:53:27.801Z,17.38
2022-10-28T02:55:57.245Z,17.23
2022-10-28T02:58:23.774Z,17.34
2022-10-28T03:00:51.186Z,17.25
2022-10-28T03:03:17.768Z,17.16
2022-10-28T03:05:44.534Z,17.23
2022-10-28T03:08:10.946Z,17.17
2022-10-28T03:10:37.391Z,17.22
2022-10-28T03:13:03.778Z,17.12
2022-10-28T03:15:30.204Z,17.20
2022-10-28T03:17:56.578Z,17.13
2022-10-28T03:20:22.975Z,17.16
2022-10-28T03:22:49.330Z,17.07
2022-10-28T03:25:15.816Z,17.14
2022-10-28T03:27:42.265Z,17.11
2022-10-28T03:30:09.073Z,17.13
2022-10-28T03:32:35.452Z,17.06
2022-10-28T03:35:01.827Z,17.09
2022-10-28T03:37:28.197Z,16.82
2022-10-28T03:39:54.561Z,17.04
2022-10-28T03:42:20.966Z,16.90
2022-10-28T03:44:47.338Z,16.95
2022-10-28T03:47:13.727Z,16.78
2022-10-28T03:49:40.112Z,16.87
2022-10-28T03:52:06.486Z,16.90
2022-10-28T03:54:32.872Z,16.92
2022-10-28T03:56:59.364Z,16.96
2022-10-28T03:59:25.739Z,16.95
2022-10-28T04:01:52.257Z,16.89
2022-10-28T04:04:18.724Z,16.68
2022-10-28T04:06:45.200Z,16.79
2022-10-28T04:09:11.568Z,16.89
2022-10-28T04:11:37.970Z,17.08
2022-10-28T04:14:04.360Z,17.08
2022-10-28T04:16:30.763Z,17.15
2022-10-28T04:18:57.315Z,17.14
2022-10-28T04:21:23.711Z,17.27
2022-10-28T04:23:50.087Z,17.24
2022-10-28T04:26:16.501Z,17.27
2022-10-28T04:28:42.929Z,17.35
2022-10-28T04:31:12.038Z,17.41
2022-10-28T04:33:38.497Z,17.46
2022-10-28T04:36:05.104Z,17.45
2022-10-28T04:38:31.527Z,17.53
2022-10-28T04:40:57.987Z,17.60
2022-10-28T04:43:24.488Z,17.68
2022-10-28T04:45:50.901Z,17.70
2022-10-28T04:48:17.320Z,17.74
2022-10-28T04:50:43.723Z,17.75
2022-10-28T04:53:10.460Z,17.69
2022-10-28T04:55:36.851Z,17.65
2022-10-28T04:58:03.358Z,17.77
2022-10-28T05:00:30.327Z,17.68
2022-10-28T05:02:57.539Z,17.68
2022-10-28T05:05:24.308Z,17.70
2022-10-28T05:07:50.861Z,17.74
2022-10-28T05:10:18.093Z,17.84
2022-10-28T05:12:47.641Z,18.07
2022-10-28T05:15:15.498Z,18.14
2022-10-28T05:17:46.424Z,18.31
2022-10-28T05:20:14.537Z,18.41
2022-10-28T05:22:48.669Z,18.55
2022-10-28T05:25:15.146Z,18.67
2022-10-28T05:27:41.713Z,18.59
2022-10-28T05:30:09.211Z,18.61
2022-10-28T05:32:35.830Z,18.58
2022-10-28T05:35:03.085Z,18.66
2022-10-28T05:37:29.581Z,18.54
2022-10-28T05:39:56.034Z,18.66
2022-10-28T05:42:22.439Z,18.63
2022-10-28T05:44:48.831Z,18.55
2022-10-28T05:47:15.321Z,18.44
2022-10-28T05:49:41.871Z,18.59
2022-10-28T05:52:08.263Z,18.71
2022-10-28T05:54:34.634Z,18.74
2022-10-28T05:57:01.148Z,18.67
2022-10-28T05:59:27.542Z,18.40
2022-10-28T06:01:53.951Z,18.44
2022-10-28T06:04:20.412Z,18.44
2022-10-28T06:06:46.855Z,18.48
2022-10-28T06:09:13.301Z,18.52
2022-10-28T06:11:38.118Z,18.52
2022-10-28T06:14:04.509Z,18.63
2022-10-28T06:16:30.883Z,18.54
2022-10-28T06:18:57.411Z,18.24
2022-10-28T06:21:23.778Z,18.16
2022-10-28T06:23:50.597Z,18.42
2022-10-28T06:26:17.038Z,18.55
2022-10-28T06:28:45.949Z,18.25
2022-10-28T06:31:12.392Z,18.42
2022-10-28T06:33:38.901Z,18.28
2022-10-28T06:36:05.768Z,18.49
2022-10-28T06:38:32.193Z,18.42
2022-10-28T06:40:58.828Z,18.45
2022-10-28T06:43:25.227Z,18.66
2022-10-28T06:45:55.251Z,18.54
2022-10-28T06:48:23.591Z,18.60
2022-10-28T06:50:50.027Z,18.36
2022-10-28T06:53:16.573Z,18.22
2022-10-28T06:55:48.561Z,18.21
2022-10-28T06:58:15.317Z,18.10
2022-10-28T07:00:41.786Z,18.10
2022-10-28T07:03:09.603Z,18.34
2022-10-28T07:05:36.095Z,18.77
2022-10-28T07:08:02.568Z,18.78
2022-10-28T07:11:04.320Z,19.10
2022-10-28T07:13:34.394Z,19.18
2022-10-28T07:16:01.519Z,19.23
2022-10-28T07:18:33.425Z,19.13
2022-10-28T07:21:01.456Z,19.26
2022-10-28T07:23:34.229Z,19.21
2022-10-28T07:26:03.406Z,19.29
2022-10-28T07:28:38.656Z,19.24
2022-10-28T07:31:05.221Z,19.53
2022-10-28T07:33:31.724Z,19.49
2022-10-28T07:35:58.125Z,19.64
2022-10-28T07:38:24.621Z,19.78
2022-10-28T07:40:51.049Z,19.98
2022-10-28T07:43:37.330Z,20.26
2022-10-28T07:46:05.305Z,20.47
2022-10-28T07:48:31.863Z,20.99
2022-10-28T07:51:06.018Z,21.62
2022-10-28T07:53:32.793Z,22.30
2022-10-28T07:56:05.765Z,22.62
2022-10-28T07:58:32.511Z,22.42
2022-10-28T08:01:04.418Z,22.44
2022-10-28T08:03:38.054Z,22.92
2022-10-28T08:06:06.845Z,23.35
2022-10-28T08:08:33.820Z,23.47
2022-10-28T08:11:08.850Z,24.43
2022-10-28T08:13:38.052Z,25.13
2022-10-28T08:16:10.630Z,25.24
2022-10-28T08:18:43.866Z,25.97
2022-10-28T08:21:13.940Z,25.88
2022-10-28T08:23:43.804Z,26.19
2022-10-28T08:26:10.203Z,26.55
2022-10-28T08:28:36.609Z,27.65
2022-10-28T08:31:09.332Z,27.67
2022-10-28T08:33:44.223Z,27.47
2022-10-28T08:36:15.729Z,28.72
2022-10-28T08:38:46.566Z,28.05
2022-10-28T08:41:36.087Z,29.27
2022-10-28T08:44:33.622Z,29.96
2022-10-28T08:47:05.820Z,31.03
2022-10-28T08:49:35.937Z,30.66
2022-10-28T08:52:27.356Z,31.82
2022-10-28T08:54:59.713Z,31.43
2022-10-28T08:57:36.803Z,32.60
2022-10-28T09:00:07.504Z,32.70
2022-10-28T09:03:06.262Z,31.65
2022-10-28T09:05:33.035Z,31.09
2022-10-28T09:08:01.083Z,31.75
2022-10-28T09:10:46.424Z,30.55
2022-10-28T09:13:15.689Z,28.91
2022-10-28T09:16:20.877Z,28.93
2022-10-28T09:18:58.441Z,27.67
2022-10-28T09:21:50.861Z,26.75
2022-10-28T09:24:50.767Z,27.53
2022-10-28T09:27:23.174Z,28.43
2022-10-28T09:30:04.929Z,29.51
2022-10-28T09:32:37.341Z,29.02
2022-10-28T09:35:13.826Z,28.94
2022-10-28T09:37:49.374Z,29.52
2022-10-28T09:40:21.716Z,28.93
2022-10-28T09:42:56.867Z,29.61
2022-10-28T09:45:31.183Z,28.87
2022-10-28T09:48:09.065Z,28.67
2022-10-28T09:50:35.530Z,26.73
2022-10-28T09:53:23.569Z,26.35
2022-10-28T09:55:50.811Z,25.94
2022-10-28T09:58:18.605Z,26.07
2022-10-28T10:00:45.511Z,25.98
2022-10-28T10:03:12.002Z,25.95
2022-10-28T10:05:43.756Z,25.94
2022-10-28T10:08:14.937Z,25.37
2022-10-28T10:11:00.942Z,25.41
2022-10-28T10:13:32.597Z,25.40
2022-10-28T10:16:04.740Z,25.42
2022-10-28T10:18:36.595Z,25.24
2022-10-28T10:21:03.788Z,24.83
2022-10-28T10:23:35.553Z,25.06
2022-10-28T10:26:08.112Z,24.46
2022-10-28T10:28:45.285Z,24.61
2022-10-28T10:31:29.714Z,24.50
2022-10-28T10:33:57.752Z,25.01
2022-10-28T10:36:28.726Z,25.05
2022-10-28T10:39:00.557Z,25.15
2022-10-28T10:41:56.463Z,24.63
2022-10-28T10:45:02.751Z,24.68
2022-10-28T10:47:35.089Z,24.94
2022-10-28T10:50:22.210Z,24.76
2022-10-28T10:53:21.031Z,25.26
2022-10-28T10:55:54.792Z,25.04
2022-10-28T10:58:24.680Z,24.79
2022-10-28T11:00:54.082Z,25.55
2022-10-28T11:03:34.809Z,25.03
2022-10-28T11:06:22.696Z,25.19
2022-10-28T11:08:54.189Z,25.22
2022-10-28T11:11:22.094Z,25.02
2022-10-28T11:14:01.649Z,25.56
2022-10-28T11:16:28.093Z,25.28
2022-10-28T11:18:54.498Z,25.45
2022-10-28T11:21:27.448Z,25.77
2022-10-28T11:24:35.997Z,25.40
2022-10-28T11:27:36.564Z,25.47
2022-10-28T11:30:05.859Z,25.73
2022-10-28T11:33:01.718Z,25.48
2022-10-28T11:35:48.229Z,25.40
2022-10-28T11:38:45.513Z,25.50
2022-10-28T11:41:27.554Z,25.30
2022-10-28T11:43:59.669Z,25.47
2022-10-28T11:47:05.137Z,24.85
2022-10-28T11:49:47.576Z,25.41
2022-10-28T11:52:49.577Z,25.18
2022-10-28T11:55:38.557Z,25.83
2022-10-28T11:58:20.005Z,25.13
2022-10-28T12:01:17.260Z,25.38
2022-10-28T12:04:05.276Z,25.81
2022-10-28T12:07:01.004Z,25.85
2022-10-28T12:09:55.379Z,25.65
2022-10-28T12:12:51.609Z,26.02
2022-10-28T12:15:43.258Z,26.14
2022-10-28T12:18:28.120Z,26.10
2022-10-28T12:21:13.606Z,25.61
2022-10-28T12:23:41.949Z,26.20
2022-10-28T12:26:13.589Z,25.80
2022-10-28T12:28:51.660Z,26.27
2022-10-28T12:31:45.880Z,26.14
2022-10-28T12:34:48.273Z,25.75
2022-10-28T12:37:36.867Z,25.37
2022-10-28T12:40:12.025Z,25.87
2022-10-28T12:42:55.819Z,26.29
2022-10-28T12:45:23.931Z,26.15
2022-10-28T12:48:15.225Z,25.86
2022-10-28T12:50:59.086Z,25.84
2022-10-28T12:53:40.741Z,25.84
2022-10-28T12:56:15.963Z,26.00
2022-10-28T12:58:59.751Z,26.44
2022-10-28T13:01:30.707Z,26.29
2022-10-28T13:03:57.581Z,25.87
2022-10-28T13:09:32.184Z,25.93
2022-10-28T13:12:27.908Z,25.97
2022-10-28T13:15:16.277Z,25.67
2022-10-28T13:18:29.842Z,25.39
2022-10-28T13:21:07.345Z,25.61
2022-10-28T13:23:53.961Z,25.79
2022-10-28T13:26:35.710Z,25.69
2022-10-28T13:29:07.232Z,25.68
2022-10-28T13:31:53.610Z,25.71
2022-10-28T13:34:29.045Z,25.71
2022-10-28T13:36:59.350Z,25.67
2022-10-28T13:39:42.499Z,25.99
2022-10-28T13:42:23.177Z,25.98
2022-10-28T13:44:51.249Z,26.14
2022-10-28T13:47:17.645Z,26.04
2022-10-28T13:50:08.856Z,25.96
2022-10-28T13:52:37.370Z,25.90
2022-10-28T13:55:18.893Z,25.97
2022-10-28T13:57:48.182Z,25.89
2022-10-28T14:00:17.697Z,25.87
2022-10-28T14:02:59.359Z,25.91
2022-10-28T14:05:32.137Z,25.89
2022-10-28T14:08:01.664Z,25.71
2022-10-28T14:10:34.132Z,25.81
2022-10-28T14:13:05.109Z,25.69
2022-10-28T14:15:34.630Z,25.66
2022-10-28T14:21:05.652Z,25.49
2022-10-28T14:23:36.385Z,25.66
2022-10-28T14:26:05.418Z,25.68
2022-10-28T14:28:31.917Z,25.67
2022-10-28T14:31:07.619Z,25.63
2022-10-28T14:33:54.201Z,25.62
2022-10-28T14:36:20.573Z,25.33
2022-10-28T14:39:21.125Z,25.46
2022-10-28T14:42:22.555Z,25.48
2022-10-28T14:45:19.392Z,25.48
2022-10-28T14:48:19.805Z,25.42
2022-10-28T14:50:49.533Z,25.27
2022-10-28T14:53:25.627Z,25.25
2022-10-28T14:56:07.966Z,25.22
2022-10-28T14:58:40.753Z,25.03
2022-10-28T15:01:16.145Z,24.99
2022-10-28T15:03:52.647Z,25.05
2022-10-28T15:06:25.039Z,24.99
2022-10-28T15:08:52.453Z,24.87
2022-10-28T15:11:19.521Z,24.93
2022-10-28T15:13:51.227Z,24.87
2022-10-28T15:16:25.390Z,24.74
2022-10-28T15:18:54.189Z,24.75
2022-10-28T15:21:22.683Z,24.71
2022-10-28T15:23:59.789Z,24.64
2022-10-28T15:26:26.343Z,24.65
2022-10-28T15:28:52.835Z,24.59
2022-10-28T15:31:19.283Z,24.46
2022-10-28T15:33:45.669Z,24.23
2022-10-28T15:36:17.517Z,24.31
2022-10-28T15:38:52.716Z,24.32
2022-10-28T15:41:25.106Z,24.38
2022-10-28T15:44:00.539Z,24.25
2022-10-28T15:46:28.298Z,24.12
2022-10-28T15:48:57.049Z,24.20
2022-10-28T15:51:24.114Z,24.19
2022-10-28T15:53:55.251Z,24.17
2022-10-28T15:56:24.370Z,24.15
2022-10-28T15:58:59.541Z,24.17
2022-10-28T16:01:31.428Z,24.27
2022-10-28T16:03:58.002Z,24.27
2022-10-28T16:06:29.148Z,24.22
2022-10-28T16:08:59.571Z,24.18
2022-10-28T16:11:26.319Z,24.20
2022-10-28T16:13:52.753Z,24.06
2022-10-28T16:16:28.856Z,24.02
2022-10-28T16:19:06.805Z,24.10
2022-10-28T16:21:34.071Z,24.06
2022-10-28T16:24:00.573Z,24.04
2022-10-28T16:26:27.552Z,24.01
2022-10-28T16:28:54.060Z,23.95
2022-10-28T16:31:25.004Z,23.93
2022-10-28T16:33:51.555Z,23.96
2022-10-28T16:36:17.962Z,23.90
2022-10-28T16:38:44.382Z,23.95
2022-10-28T16:41:16.927Z,23.96
2022-10-28T16:43:43.717Z,23.90
2022-10-28T16:46:12.779Z,23.87
2022-10-28T16:48:39.869Z,23.82
2022-10-28T16:51:13.903Z,23.82
2022-10-28T16:53:42.478Z,23.75
2022-10-28T16:56:13.752Z,23.69
2022-10-28T16:58:42.330Z,23.65
2022-10-28T17:01:12.209Z,23.67
2022-10-28T17:03:38.722Z,23.63
2022-10-28T17:06:05.392Z,23.49
2022-10-28T17:09:00.817Z,23.50
2022-10-28T17:11:18.278Z,23.40
2022-10-28T17:13:44.756Z,23.40
2022-10-28T17:16:12.761Z,23.43
2022-10-28T17:18:39.223Z,23.30
2022-10-28T17:21:06.167Z,23.34
2022-10-28T17:23:32.592Z,23.29
2022-10-28T17:26:00.237Z,23.35
2022-10-28T17:28:26.783Z,23.43
2022-10-28T17:30:53.983Z,23.38
2022-10-28T17:33:20.372Z,23.36
2022-10-28T17:35:46.780Z,23.44
2022-10-28T17:38:13.186Z,23.40
2022-10-28T17:40:39.570Z,23.38
2022-10-28T17:43:05.983Z,23.43
2022-10-28T17:45:32.367Z,23.47
2022-10-28T17:47:59.541Z,23.50
2022-10-28T17:50:25.985Z,23.43
2022-10-28T17:52:53.331Z,23.00
2022-10-28T17:55:19.998Z,23.33
2022-10-28T17:57:46.509Z,23.41
2022-10-28T18:00:13.665Z,23.28
2022-10-28T18:02:40.419Z,23.28
2022-10-28T18:05:07.404Z,23.15
2022-10-28T18:07:33.946Z,23.19
2022-10-28T18:10:00.364Z,22.89
2022-10-28T18:12:26.864Z,23.11
2022-10-28T18:14:53.249Z,23.04
2022-10-28T18:17:19.674Z,22.95
2022-10-28T18:19:46.056Z,22.94
2022-10-28T18:22:12.519Z,22.96
2022-10-28T18:24:38.960Z,23.02
2022-10-28T18:27:05.392Z,23.10
2022-10-28T18:29:31.900Z,23.00
2022-10-28T18:32:00.575Z,23.06
2022-10-28T18:34:27.481Z,23.00
2022-10-28T18:36:53.965Z,22.89
2022-10-28T18:39:20.382Z,22.90
2022-10-28T18:41:46.835Z,22.98
2022-10-28T18:44:14.386Z,23.04
2022-10-28T18:46:41.310Z,23.01
2022-10-28T18:49:08.077Z,22.82
2022-10-28T18:51:34.513Z,22.96
2022-10-28T18:54:01.080Z,23.06
2022-10-28T18:56:29.272Z,22.94
2022-10-28T18:58:57.018Z,22.45
2022-10-28T19:01:28.442Z,22.73
2022-10-28T19:03:57.304Z,22.94
2022-10-28T19:06:26.079Z,22.53
2022-10-28T19:08:54.924Z,22.64
2022-10-28T19:11:22.701Z,22.68
2022-10-28T19:13:49.164Z,22.81
2022-10-28T19:16:15.606Z,22.60
2022-10-28T19:18:42.123Z,22.74
2022-10-28T19:21:17.351Z,22.73
2022-10-28T19:23:43.959Z,22.52
2022-10-28T19:26:11.389Z,22.46
2022-10-28T19:28:39.386Z,22.62
2022-10-28T19:31:08.478Z,22.65
2022-10-28T19:33:38.099Z,22.58
2022-10-28T19:36:04.639Z,22.58
2022-10-28T19:38:33.261Z,22.36
2022-10-28T19:41:08.540Z,22.41
2022-10-28T19:43:35.873Z,22.20
2022-10-28T19:46:10.168Z,22.29
2022-10-28T19:48:38.261Z,22.21
2022-10-28T19:51:04.849Z,21.78
2022-10-28T19:53:31.579Z,22.32
2022-10-28T19:56:00.016Z,22.20
2022-10-28T19:58:27.711Z,22.29
2022-10-28T20:01:05.463Z,22.28
2022-10-28T20:03:34.590Z,22.17
2022-10-28T20:06:08.476Z,22.07
2022-10-28T20:08:37.061Z,22.19
2022-10-28T20:11:06.247Z,22.02
2022-10-28T20:13:33.675Z,22.07
2022-10-28T20:16:05.702Z,21.31
2022-10-28T20:18:33.149Z,21.74
2022-10-28T20:21:19.766Z,21.70
2022-10-28T20:23:49.329Z,21.70
2022-10-28T20:26:16.991Z,21.86
2022-10-28T20:28:43.412Z,21.76
2022-10-28T20:31:15.672Z,21.84
2022-10-28T20:33:44.357Z,21.74
2022-10-28T20:36:36.432Z,21.80
2022-10-28T20:39:08.749Z,21.65
2022-10-28T20:41:37.306Z,21.60
2022-10-28T20:44:06.127Z,21.40
2022-10-28T20:46:33.520Z,21.35
2022-10-28T20:49:00.901Z,21.29
2022-10-28T20:51:30.243Z,20.95
2022-10-28T20:53:56.890Z,21.20
2022-10-28T20:56:28.475Z,21.20
2022-10-28T20:58:55.889Z,21.05
2022-10-28T21:01:36.126Z,21.13
2022-10-28T21:04:05.218Z,20.94
2022-10-28T21:06:32.307Z,21.07
2022-10-28T21:08:59.069Z,21.16
2022-10-28T21:11:26.756Z,20.92
2022-10-28T21:13:55.687Z,20.73
2022-10-28T21:16:22.877Z,20.62
2022-10-28T21:18:50.184Z,20.91
2022-10-28T21:21:18.021Z,20.67
2022-10-28T21:23:44.580Z,20.62
2022-10-28T21:26:12.682Z,20.73
2022-10-28T21:28:41.419Z,20.75
2022-10-28T21:31:13.369Z,20.73
2022-10-28T21:33:40.999Z,20.81
2022-10-28T21:36:18.942Z,20.55
2022-10-28T21:38:45.711Z,20.73
2022-10-28T21:41:18.483Z,20.51
2022-10-28T21:43:50.360Z,20.38
2022-10-28T21:46:18.344Z,20.65
2022-10-28T21:48:45.023Z,20.66
2022-10-28T21:51:14.776Z,20.67
2022-10-28T21:53:42.698Z,20.59
2022-10-28T21:56:16.611Z,20.55
2022-10-28T21:58:44.751Z,20.49
2022-10-28T22:01:17.095Z,20.52
2022-10-28T22:03:43.674Z,20.43
2022-10-28T22:06:10.827Z,20.33
2022-10-28T22:08:37.259Z,20.38
2022-10-28T22:11:08.395Z,20.42
2022-10-28T22:13:35.047Z,20.47
2022-10-28T22:16:19.370Z,20.52
2022-10-28T22:18:46.380Z,20.41
2022-10-28T22:21:14.841Z,20.39
2022-10-28T22:23:41.600Z,20.44
2022-10-28T22:26:11.345Z,20.37
2022-10-28T22:28:38.279Z,20.28
2022-10-28T22:31:07.346Z,20.33
2022-10-28T22:33:34.013Z,20.24
2022-10-28T22:36:02.942Z,20.26
2022-10-28T22:38:29.531Z,20.09
2022-10-28T22:41:06.260Z,20.01
2022-10-28T22:43:33.284Z,20.06
2022-10-28T22:46:00.549Z,20.08
2022-10-28T22:48:27.983Z,20.11
2022-10-28T22:50:54.437Z,20.12
2022-10-28T22:53:21.102Z,20.12
2022-10-28T22:55:48.643Z,20.03
2022-10-28T22:58:18.387Z,19.98
2022-10-28T23:00:45.108Z,19.99
2022-10-28T23:03:12.440Z,19.99
2022-10-28T23:05:39.988Z,19.93
2022-10-28T23:08:06.979Z,19.84
2022-10-28T23:10:33.881Z,19.70
2022-10-28T23:13:01.738Z,19.65
2022-10-28T23:15:29.550Z,19.68
2022-10-28T23:17:56.311Z,19.68
2022-10-28T23:20:24.876Z,19.64
2022-10-28T23:22:51.345Z,19.55
2022-10-28T23:25:17.709Z,19.54
2022-10-28T23:27:44.459Z,19.49
2022-10-28T23:30:12.927Z,19.47
2022-10-28T23:32:39.922Z,19.37
2022-10-28T23:35:07.588Z,19.39
2022-10-28T23:37:33.988Z,19.32
2022-10-28T23:40:00.440Z,19.28
2022-10-28T23:42:26.914Z,19.22
2022-10-28T23:44:53.304Z,19.32
2022-10-28T23:47:19.683Z,19.30
2022-10-28T23:49:46.082Z,19.23
2022-10-28T23:52:12.462Z,19.24
2022-10-28T23:54:38.873Z,19.21
2022-10-28T23:57:05.344Z,19.20
2022-10-28T23:59:31.762Z,19.12
